Time;durP1;ratioP1;P1;durP2;ratioP2;P2;SDS_P1;SDS_P2;PMS_P1;PMS_P2;Temp;Humidity;BMP_temperature;BMP_pressure;BME280_temperature;BME280_humidity;BME280_pressure;Samples;Min_cycle;Max_cycle;Signal;HPM_P1;HPM_P2
2023/01/26 00:01:30;;;;;;;5.50;4.67;;;;;;;2.64;56.34;95373.66;5051784;28;20321;-75
2023/01/26 00:03:56;;;;;;;6.10;4.40;;;;;;;2.58;56.02;95371.44;5050815;28;20233;-75
2023/01/26 00:06:22;;;;;;;5.73;4.37;;;;;;;2.47;56.61;95379.06;5049434;28;20214;-75
2023/01/26 00:08:50;;;;;;;5.20;4.60;;;;;;;2.43;56.33;95382.75;5049051;28;20213;-75
2023/01/26 00:11:18;;;;;;;5.03;4.53;;;;;;;2.43;56.03;95370.63;5047658;28;20225;-76
2023/01/26 00:13:44;;;;;;;5.40;4.83;;;;;;;2.50;56.52;95373.69;5048993;28;20255;-75
2023/01/26 00:16:15;;;;;;;5.60;4.80;;;;;;;2.46;56.25;95374.81;5046890;28;20229;-76
2023/01/26 00:18:42;;;;;;;5.73;4.67;;;;;;;2.56;55.89;95386.28;5049271;28;20204;-75
2023/01/26 00:21:11;;;;;;;5.83;4.57;;;;;;;2.58;55.92;95381.81;5051404;28;20193;-75
2023/01/26 00:23:36;;;;;;;5.90;5.30;;;;;;;2.21;56.64;95378.03;5052915;28;20224;-76
2023/01/26 00:26:05;;;;;;;5.73;5.10;;;;;;;2.43;56.21;95382.75;5048727;28;20723;-75
2023/01/26 00:28:30;;;;;;;5.73;5.07;;;;;;;2.34;56.44;95378.13;5047021;28;20312;-76
2023/01/26 00:31:03;;;;;;;6.10;5.30;;;;;;;2.34;56.63;95373.78;5051015;28;20217;-76
2023/01/26 00:33:28;;;;;;;6.03;5.43;;;;;;;2.36;56.42;95363.31;5051900;28;20213;-76
2023/01/26 00:35:54;;;;;;;6.70;5.37;;;;;;;2.42;56.34;95349.94;5050224;28;20307;-76
2023/01/26 00:38:19;;;;;;;7.07;5.37;;;;;;;2.33;56.15;95348.75;5049577;28;20240;-74
2023/01/26 00:40:45;;;;;;;6.37;5.37;;;;;;;2.26;56.59;95359.59;5044074;28;21122;-75
2023/01/26 00:43:10;;;;;;;6.77;5.77;;;;;;;2.15;56.73;95347.28;5050395;28;20236;-74
2023/01/26 00:45:36;;;;;;;7.40;5.50;;;;;;;2.20;56.62;95345.25;5050159;28;20300;-76
2023/01/26 00:48:01;;;;;;;6.27;5.20;;;;;;;2.14;56.68;95354.22;5051378;28;20193;-75
2023/01/26 00:50:26;;;;;;;6.20;5.20;;;;;;;2.21;56.58;95358.09;5047959;28;20229;-75
2023/01/26 00:52:52;;;;;;;6.27;5.20;;;;;;;1.96;57.02;95344.97;5047192;28;20225;-75
2023/01/26 00:55:18;;;;;;;7.10;5.03;;;;;;;1.84;57.19;95341.31;5053346;28;20221;-75
2023/01/26 00:57:44;;;;;;;6.63;5.53;;;;;;;1.84;57.17;95350.84;5048671;28;20185;-73
2023/01/26 01:00:13;;;;;;;6.10;5.50;;;;;;;1.95;56.75;95330.31;5046856;28;20192;-73
2023/01/26 01:02:39;;;;;;;5.63;5.03;;;;;;;1.95;56.48;95327.72;5050354;28;20217;-73
2023/01/26 01:05:04;;;;;;;5.37;4.87;;;;;;;1.83;57.12;95323.28;5047496;28;20229;-75
2023/01/26 01:07:30;;;;;;;5.73;5.17;;;;;;;1.70;57.00;95325.75;5052726;28;20243;-75
2023/01/26 01:09:55;;;;;;;5.53;4.90;;;;;;;1.67;57.35;95324.19;5052105;28;20283;-74
2023/01/26 01:12:21;;;;;;;5.13;4.53;;;;;;;1.77;56.85;95322.72;5056827;28;20264;-74
2023/01/26 01:14:46;;;;;;;5.50;5.00;;;;;;;1.97;56.65;95328.47;5058448;28;20232;-74
2023/01/26 01:17:11;;;;;;;4.87;4.10;;;;;;;1.91;56.33;95323.66;5053225;28;20634;-73
2023/01/26 01:19:37;;;;;;;6.17;5.07;;;;;;;1.86;56.17;95323.09;5050201;28;20225;-73
2023/01/26 01:22:03;;;;;;;6.47;4.93;;;;;;;1.99;56.01;95316.25;5051095;28;20622;-75
2023/01/26 01:24:28;;;;;;;4.80;4.03;;;;;;;1.97;55.78;95312.91;5053794;28;20228;-74
2023/01/26 01:26:54;;;;;;;6.57;4.90;;;;;;;2.11;55.14;95312.91;5057492;28;20252;-74
2023/01/26 01:29:19;;;;;;;5.73;5.00;;;;;;;2.09;55.16;95313.94;5048317;28;20236;-74
2023/01/26 01:31:45;;;;;;;6.30;4.47;;;;;;;2.12;55.02;95313.75;5050253;28;20237;-74
2023/01/26 01:34:10;;;;;;;5.53;4.57;;;;;;;2.06;55.83;95317.56;5049404;28;20232;-73
2023/01/26 01:36:35;;;;;;;5.30;4.10;;;;;;;2.02;55.34;95313.47;5053270;28;20201;-74
2023/01/26 01:39:01;;;;;;;5.77;4.17;;;;;;;2.13;55.29;95312.81;5042228;28;20214;-75
2023/01/26 01:41:26;;;;;;;4.73;4.17;;;;;;;2.27;54.93;95309.38;5051612;28;20221;-76
2023/01/26 01:44:28;;;;;;;5.83;4.23;;;;;;;2.16;54.85;95305.66;5052945;28;20229;-74
2023/01/26 01:47:03;;;;;;;6.50;4.37;;;;;;;2.17;54.45;95312.53;5042557;28;20228;-74
2023/01/26 01:49:50;;;;;;;6.03;4.20;;;;;;;2.29;54.24;95310.94;5050234;28;20217;-74
2023/01/26 01:52:26;;;;;;;5.17;4.67;;;;;;;2.29;54.28;95312.72;5051245;28;20249;-75
2023/01/26 01:55:01;;;;;;;6.33;4.47;;;;;;;2.14;54.18;95315.31;5058036;28;20216;-74
2023/01/26 01:57:43;;;;;;;4.37;3.90;;;;;;;2.08;54.45;95310.50;5051784;28;20185;-75
2023/01/26 02:00:15;;;;;;;4.53;3.90;;;;;;;2.12;54.47;95301.59;5049485;28;20229;-74
2023/01/26 02:02:43;;;;;;;4.83;4.40;;;;;;;2.08;54.46;95291.50;5035794;28;20213;-74
2023/01/26 02:05:41;;;;;;;5.03;4.23;;;;;;;2.12;54.56;95291.22;5055020;28;20256;-74
2023/01/26 02:08:08;;;;;;;4.97;3.73;;;;;;;1.99;54.84;95292.91;5046729;28;20233;-74
2023/01/26 02:10:35;;;;;;;5.07;4.57;;;;;;;1.92;54.83;95291.59;5050836;28;20227;-75
2023/01/26 02:13:02;;;;;;;4.97;4.30;;;;;;;1.91;55.11;95287.34;5050973;28;20245;-73
2023/01/26 02:15:29;;;;;;;4.33;3.93;;;;;;;1.74;55.48;95286.59;5050718;28;20217;-74
2023/01/26 02:17:54;;;;;;;4.57;4.10;;;;;;;1.87;55.11;95286.72;5050594;28;20229;-74
2023/01/26 02:20:38;;;;;;;4.07;3.67;;;;;;;1.94;55.35;95277.59;5055140;28;20228;-74
2023/01/26 02:23:23;;;;;;;5.97;4.67;;;;;;;1.92;55.54;95265.66;5049133;28;20240;-75
2023/01/26 02:25:48;;;;;;;5.80;4.50;;;;;;;1.97;55.07;95261.84;5053053;28;20233;-76
2023/01/26 02:28:14;;;;;;;4.47;3.83;;;;;;;2.02;55.51;95255.56;5053695;28;20299;-75
2023/01/26 02:30:40;;;;;;;5.50;3.90;;;;;;;2.05;55.19;95250.19;5050163;28;20217;-75
2023/01/26 02:33:05;;;;;;;4.60;4.10;;;;;;;1.81;55.46;95260.31;5054824;28;20200;-73
2023/01/26 02:35:30;;;;;;;5.00;4.20;;;;;;;1.88;55.28;95251.22;5051235;28;20217;-75
2023/01/26 02:37:56;;;;;;;6.90;4.80;;;;;;;1.91;55.60;95246.69;5056392;28;20315;-75
2023/01/26 02:40:37;;;;;;;5.13;4.20;;;;;;;1.99;55.25;95246.22;5048856;28;20221;-75
2023/01/26 02:43:02;;;;;;;5.10;4.40;;;;;;;1.99;55.36;95249.63;5051063;28;20279;-75
2023/01/26 02:45:30;;;;;;;6.20;4.43;;;;;;;1.88;55.92;95243.47;5054887;28;20300;-76
2023/01/26 02:47:56;;;;;;;5.53;4.50;;;;;;;1.86;55.50;95242.72;5052304;28;20221;-74
2023/01/26 02:50:22;;;;;;;5.50;4.53;;;;;;;1.82;55.64;95231.69;5050863;28;20256;-73
2023/01/26 02:52:47;;;;;;;4.43;3.97;;;;;;;1.80;55.71;95227.53;5051767;28;20310;-75
2023/01/26 02:55:23;;;;;;;4.60;4.10;;;;;;;1.79;55.60;95229.28;5050184;28;20623;-75
2023/01/26 02:57:51;;;;;;;4.50;4.10;;;;;;;1.74;55.66;95214.00;5047396;28;20193;-74
2023/01/26 03:00:25;;;;;;;4.60;4.20;;;;;;;1.70;55.84;95222.88;5049202;28;20205;-75
2023/01/26 03:02:52;;;;;;;4.57;3.70;;;;;;;1.63;55.69;95221.63;5053412;28;20216;-74
2023/01/26 03:05:18;;;;;;;5.00;4.50;;;;;;;1.55;55.77;95218.63;5050634;28;20256;-68
2023/01/26 03:07:44;;;;;;;4.40;4.00;;;;;;;1.63;55.78;95221.63;5052540;28;20308;-69
2023/01/26 03:10:10;;;;;;;4.80;4.30;;;;;;;1.56;55.98;95222.91;5048335;28;20359;-69
2023/01/26 03:12:36;;;;;;;5.37;4.00;;;;;;;1.48;56.33;95217.34;5057160;28;20189;-69
2023/01/26 03:17:46;;;;;;;4.30;3.90;;;;;;;1.54;56.15;95202.25;5050938;28;20249;-63
2023/01/26 03:28:25;;;;;;;6.20;3.90;;;;;;;1.57;56.01;95177.91;5049395;28;20247;-69
2023/01/26 03:30:53;;;;;;;4.37;3.97;;;;;;;1.59;55.87;95181.25;5049577;28;20602;-69
2023/01/26 03:33:19;;;;;;;4.77;4.20;;;;;;;1.59;56.05;95180.41;5049251;28;20257;-69
2023/01/26 03:35:45;;;;;;;4.03;3.63;;;;;;;1.58;55.67;95184.78;5051569;28;20309;-69
2023/01/26 03:38:11;;;;;;;4.73;3.93;;;;;;;1.55;56.17;95182.34;5048699;28;20253;-69
2023/01/26 03:57:02;;;;;;;4.67;3.93;;;;;;;1.72;55.92;95161.41;5054240;28;20235;-69
2023/01/26 03:59:37;;;;;;;4.53;4.13;;;;;;;1.50;56.47;95166.25;5054541;28;20220;-69
2023/01/26 04:10:24;;;;;;;4.73;4.27;;;;;;;1.71;56.37;95152.00;5049331;28;20290;-70
2023/01/26 04:23:55;;;;;;;4.33;3.93;;;;;;;1.65;56.05;95116.06;5051658;28;20223;-69
2023/01/26 04:26:22;;;;;;;3.83;3.53;;;;;;;1.75;56.27;95118.91;5049004;28;20218;-69
2023/01/26 04:28:47;;;;;;;3.97;3.63;;;;;;;1.63;56.49;95112.75;5048998;28;20232;-69
2023/01/26 04:31:12;;;;;;;5.30;4.37;;;;;;;1.62;56.50;95110.25;5048940;28;20303;-69
2023/01/26 04:33:38;;;;;;;5.00;4.53;;;;;;;1.68;56.68;95110.69;5048843;28;20189;-69
2023/01/26 04:36:05;;;;;;;4.23;3.83;;;;;;;1.69;56.24;95114.94;5051817;28;20310;-69
2023/01/26 04:38:30;;;;;;;4.30;3.90;;;;;;;1.67;56.24;95110.78;5050291;28;20228;-69
2023/01/26 04:40:56;;;;;;;5.20;4.70;;;;;;;1.41;57.01;95109.81;5048520;28;20225;-69
2023/01/26 04:43:21;;;;;;;4.70;4.30;;;;;;;1.50;56.95;95122.22;5051574;28;20256;-69
2023/01/26 04:46:00;;;;;;;4.23;3.83;;;;;;;1.56;57.09;95116.63;5057575;28;20217;-69
2023/01/26 04:48:27;;;;;;;4.97;4.47;;;;;;;1.57;56.94;95117.47;5054569;28;20193;-70
2023/01/26 04:50:57;;;;;;;4.23;3.80;;;;;;;1.55;56.21;95109.78;5056526;28;20248;-70
2023/01/26 04:53:23;;;;;;;4.27;3.67;;;;;;;1.59;56.17;95111.25;5054067;28;20226;-70
2023/01/26 04:55:48;;;;;;;4.30;3.90;;;;;;;1.52;56.26;95116.00;5053924;28;20224;-70
2023/01/26 04:58:14;;;;;;;4.20;3.80;;;;;;;1.61;55.90;95116.38;5055195;28;20217;-70
2023/01/26 05:00:39;;;;;;;4.50;4.10;;;;;;;1.54;56.48;95111.53;5053369;28;20193;-70
2023/01/26 05:03:05;;;;;;;4.40;4.00;;;;;;;1.62;56.27;95120.59;5051135;28;20308;-70
2023/01/26 05:05:34;;;;;;;4.03;3.63;;;;;;;1.69;56.13;95119.31;5056333;28;20244;-70
2023/01/26 05:08:00;;;;;;;4.50;4.07;;;;;;;1.68;56.08;95121.03;5056179;28;20292;-69
2023/01/26 05:10:25;;;;;;;4.80;4.27;;;;;;;1.73;56.05;95118.19;5050902;28;20327;-69
2023/01/26 05:12:51;;;;;;;3.97;3.50;;;;;;;1.75;55.95;95121.50;5054397;28;20280;-69
2023/01/26 05:15:16;;;;;;;5.20;4.70;;;;;;;1.68;56.33;95112.44;5054422;28;20217;-71
2023/01/26 05:17:41;;;;;;;4.97;4.27;;;;;;;1.60;56.42;95109.50;5051664;28;20221;-70
2023/01/26 05:20:08;;;;;;;4.47;4.07;;;;;;;1.65;55.76;95113.47;5050848;28;20228;-70
2023/01/26 05:22:33;;;;;;;4.70;4.20;;;;;;;1.58;56.60;95108.75;5049936;28;20217;-70
2023/01/26 05:24:58;;;;;;;5.37;4.40;;;;;;;1.57;56.10;95110.53;5051445;28;20219;-71
2023/01/26 05:27:24;;;;;;;5.37;4.50;;;;;;;1.62;56.38;95111.06;5050024;28;20197;-71
2023/01/26 05:29:50;;;;;;;4.23;3.83;;;;;;;1.65;56.19;95104.88;5054617;28;20244;-71
2023/01/26 05:32:16;;;;;;;4.03;3.73;;;;;;;1.70;55.68;95105.41;5048943;28;20225;-69
2023/01/26 05:34:42;;;;;;;4.73;4.20;;;;;;;1.23;57.35;95107.44;5049179;28;20239;-70
2023/01/26 05:37:07;;;;;;;4.80;4.37;;;;;;;1.58;56.31;95104.44;5047671;28;20247;-71
2023/01/26 05:39:32;;;;;;;5.63;4.60;;;;;;;1.70;56.01;95095.03;5051483;28;20216;-71
2023/01/26 05:41:58;;;;;;;6.17;4.63;;;;;;;1.65;55.95;95097.91;5055561;28;20228;-71
2023/01/26 05:44:24;;;;;;;5.17;4.67;;;;;;;1.65;55.87;95097.91;5049417;28;20239;-71
2023/01/26 05:46:50;;;;;;;5.50;4.90;;;;;;;1.70;55.96;95108.81;5055956;28;20254;-70
2023/01/26 05:49:16;;;;;;;7.30;5.17;;;;;;;1.73;56.24;95102.63;5053594;28;20217;-69
2023/01/26 05:51:41;;;;;;;6.87;5.97;;;;;;;1.76;55.60;95099.84;5051257;28;20193;-70
2023/01/26 05:54:07;;;;;;;6.87;5.03;;;;;;;1.62;56.21;95102.47;5048937;28;20244;-69
2023/01/26 05:56:32;;;;;;;6.60;5.90;;;;;;;1.73;55.88;95103.44;5052317;28;20229;-69
2023/01/26 05:58:58;;;;;;;7.43;6.60;;;;;;;1.64;55.98;95104.03;5048271;28;20229;-68
2023/01/26 06:01:23;;;;;;;6.30;5.17;;;;;;;1.81;55.82;95102.16;5048790;28;20229;-69
2023/01/26 06:03:49;;;;;;;6.77;5.60;;;;;;;1.69;55.97;95102.00;5051208;28;20193;-69
2023/01/26 06:06:14;;;;;;;6.93;6.23;;;;;;;1.68;56.37;95104.66;5055274;28;20189;-69
2023/01/26 06:08:39;;;;;;;9.17;7.00;;;;;;;1.66;56.22;95103.94;5056255;28;20217;-69
2023/01/26 06:11:05;;;;;;;6.10;5.50;;;;;;;1.70;56.02;95095.88;5049373;28;20226;-68
2023/01/26 06:13:30;;;;;;;7.33;6.47;;;;;;;1.79;56.07;95096.22;5055727;28;20227;-69
2023/01/26 06:15:59;;;;;;;7.27;6.30;;;;;;;1.87;55.82;95099.16;5051989;28;20233;-68
2023/01/26 06:18:25;;;;;;;9.13;6.73;;;;;;;1.98;55.41;95099.34;5054586;28;20196;-67
2023/01/26 06:20:50;;;;;;;8.27;6.90;;;;;;;1.56;57.04;95097.69;5047284;28;20225;-65
2023/01/26 06:23:15;;;;;;;9.03;6.60;;;;;;;1.20;57.61;95097.22;5051874;28;20304;-67
2023/01/26 06:25:41;;;;;;;9.03;7.77;;;;;;;1.32;57.74;95088.72;5043032;28;20783;-70
2023/01/26 06:28:06;;;;;;;11.93;8.13;;;;;;;1.68;56.80;95089.13;5048330;28;20230;-71
2023/01/26 06:30:36;;;;;;;10.40;7.67;;;;;;;1.89;56.14;95082.56;5049415;28;20596;-72
2023/01/26 06:33:02;;;;;;;9.07;7.33;;;;;;;1.93;55.76;95072.84;5045831;28;20232;-72
2023/01/26 06:35:27;;;;;;;9.97;7.80;;;;;;;2.01;55.26;95073.19;5047468;28;20241;-72
2023/01/26 06:37:52;;;;;;;8.70;7.20;;;;;;;2.03;55.48;95073.06;5049020;28;20236;-72
2023/01/26 06:40:18;;;;;;;8.03;6.70;;;;;;;2.09;55.11;95073.53;5044371;28;20221;-68
2023/01/26 06:42:50;;;;;;;8.40;6.70;;;;;;;2.10;55.34;95075.19;5050645;28;20229;-70
2023/01/26 06:45:16;;;;;;;10.20;7.53;;;;;;;2.03;55.31;95079.09;5049006;28;20237;-71
2023/01/26 06:47:46;;;;;;;8.40;7.50;;;;;;;1.87;55.70;95076.69;5051153;28;20213;-70
2023/01/26 06:50:14;;;;;;;8.63;6.50;;;;;;;1.87;55.58;95078.41;5046796;28;20447;-70
2023/01/26 06:52:43;;;;;;;9.93;7.77;;;;;;;1.82;55.38;95083.06;5048988;28;20233;-72
2023/01/26 06:55:20;;;;;;;8.30;7.07;;;;;;;1.74;55.83;95073.19;5047507;28;20323;-69
2023/01/26 06:57:46;;;;;;;8.07;7.20;;;;;;;1.89;55.38;95073.97;5047315;28;20205;-68
2023/01/26 07:00:12;;;;;;;9.70;7.03;;;;;;;1.87;55.40;95074.09;5046981;28;20278;-68
2023/01/26 07:02:38;;;;;;;10.57;7.00;;;;;;;1.96;55.30;95072.66;5052184;28;20217;-68
2023/01/26 07:05:04;;;;;;;9.03;6.93;;;;;;;2.04;54.91;95062.63;5045312;28;20233;-69
2023/01/26 07:07:29;;;;;;;10.63;6.73;;;;;;;1.85;55.55;95070.75;5033052;28;20225;-69
2023/01/26 07:09:55;;;;;;;8.90;6.73;;;;;;;1.90;55.76;95070.47;5048794;28;20247;-65
2023/01/26 07:12:20;;;;;;;8.23;6.70;;;;;;;2.06;55.13;95063.34;5052746;28;20197;-66
2023/01/26 07:14:46;;;;;;;9.27;7.07;;;;;;;1.81;56.07;95052.88;5051791;28;20205;-66
2023/01/26 07:17:12;;;;;;;8.57;7.13;;;;;;;1.97;55.64;95056.97;5050709;28;20240;-69
2023/01/26 07:19:37;;;;;;;9.73;7.30;;;;;;;2.22;55.48;95052.81;5043471;28;20197;-69
2023/01/26 07:22:04;;;;;;;9.70;7.77;;;;;;;2.24;55.09;95048.34;5051282;28;20216;-69
2023/01/26 07:24:29;;;;;;;9.30;7.43;;;;;;;2.12;55.02;95047.38;5046680;28;20280;-68
2023/01/26 07:26:55;;;;;;;9.97;7.17;;;;;;;2.20;55.24;95055.50;5056478;28;20225;-69
2023/01/26 07:29:21;;;;;;;8.43;7.10;;;;;;;2.24;55.27;95052.69;5048351;28;20213;-68
2023/01/26 07:31:47;;;;;;;7.90;6.57;;;;;;;2.38;54.76;95057.84;5044895;28;20225;-68
2023/01/26 07:34:12;;;;;;;7.80;6.80;;;;;;;2.34;54.58;95049.41;5052696;28;20272;-70
2023/01/26 07:36:38;;;;;;;7.93;7.10;;;;;;;2.45;54.55;95053.88;5047508;28;20206;-70
2023/01/26 07:39:05;;;;;;;8.27;6.70;;;;;;;2.24;55.12;95039.72;5048923;28;20295;-70
2023/01/26 07:41:30;;;;;;;7.60;6.50;;;;;;;2.12;55.57;95034.41;5065431;28;20222;-70
2023/01/26 07:43:56;;;;;;;8.47;7.60;;;;;;;2.24;55.15;95040.56;5051503;28;20229;-68
2023/01/26 07:46:22;;;;;;;9.50;7.70;;;;;;;2.34;54.86;95040.78;5048350;28;20197;-70
2023/01/26 07:48:47;;;;;;;9.77;6.50;;;;;;;2.33;54.88;95039.97;5047690;28;20303;-69
2023/01/26 07:51:13;;;;;;;6.93;6.23;;;;;;;2.36;54.75;95037.16;5051320;28;20689;-68
2023/01/26 07:53:38;;;;;;;8.53;7.30;;;;;;;2.13;55.40;95030.88;5050079;28;20213;-67
2023/01/26 07:56:15;;;;;;;8.17;6.53;;;;;;;2.28;55.54;95038.63;5048561;28;20232;-66
2023/01/26 07:58:41;;;;;;;8.47;6.37;;;;;;;2.21;54.90;95039.00;5047298;28;20601;-67
2023/01/26 08:01:12;;;;;;;6.93;6.23;;;;;;;2.31;55.20;95044.41;5053813;28;20204;-67
2023/01/26 08:03:38;;;;;;;7.27;6.03;;;;;;;2.46;54.89;95041.72;5043837;28;20221;-68
2023/01/26 08:06:04;;;;;;;9.83;6.83;;;;;;;2.56;54.64;95025.44;5047169;28;20256;-69
2023/01/26 08:08:30;;;;;;;11.67;6.87;;;;;;;2.61;54.25;95033.75;5049210;28;20279;-67
2023/01/26 08:10:57;;;;;;;7.33;6.47;;;;;;;2.70;53.91;95032.31;5052896;28;20229;-68
2023/01/26 08:13:23;;;;;;;5.93;5.33;;;;;;;2.71;53.68;95028.78;5066280;28;20190;-68
2023/01/26 08:15:48;;;;;;;7.43;5.93;;;;;;;2.71;53.61;95014.97;5045289;28;20291;-69
2023/01/26 08:18:14;;;;;;;7.20;6.20;;;;;;;2.55;53.89;95018.59;5047606;28;20233;-69
2023/01/26 08:20:39;;;;;;;6.67;5.97;;;;;;;2.48;54.64;95012.16;5048374;28;20227;-67
2023/01/26 08:23:05;;;;;;;7.47;6.40;;;;;;;2.59;54.32;95012.28;5047497;28;20235;-67
2023/01/26 08:25:32;;;;;;;7.33;6.20;;;;;;;2.40;54.55;95017.03;5048356;28;20209;-67
2023/01/26 08:27:57;;;;;;;7.73;6.63;;;;;;;2.35;55.07;95019.94;5046022;28;20197;-67
2023/01/26 08:30:23;;;;;;;8.70;6.67;;;;;;;2.41;54.84;95016.13;5046470;28;20287;-69
2023/01/26 08:32:48;;;;;;;7.90;6.17;;;;;;;2.55;54.38;95007.41;5050808;28;20232;-72
2023/01/26 08:35:14;;;;;;;7.77;6.40;;;;;;;2.52;54.40;95008.44;5048348;28;20328;-71
2023/01/26 08:37:39;;;;;;;7.43;6.20;;;;;;;2.61;54.13;95006.97;5047419;28;20197;-69
2023/01/26 08:40:05;;;;;;;9.60;6.27;;;;;;;2.56;54.30;95001.25;5050256;28;20208;-68
2023/01/26 08:42:31;;;;;;;6.90;5.37;;;;;;;2.64;53.66;94997.19;5043740;28;20218;-69
2023/01/26 08:44:56;;;;;;;5.80;5.30;;;;;;;2.56;53.94;94998.66;5045347;28;20259;-69
2023/01/26 08:47:22;;;;;;;5.33;4.53;;;;;;;2.64;53.44;94999.78;5046325;28;20225;-68
2023/01/26 08:49:47;;;;;;;8.80;4.93;;;;;;;2.67;53.53;94997.94;5047697;28;20304;-67
2023/01/26 08:52:12;;;;;;;5.40;4.37;;;;;;;2.57;53.16;94995.97;5050532;28;20211;-67
2023/01/26 08:54:38;;;;;;;4.20;3.80;;;;;;;2.69;53.17;94999.50;5047851;28;20210;-70
2023/01/26 08:57:03;;;;;;;4.20;3.80;;;;;;;2.81;52.97;95003.03;5048425;28;20285;-70
2023/01/26 08:59:29;;;;;;;5.20;3.93;;;;;;;2.96;52.22;94998.53;5051103;28;20220;-67
2023/01/26 09:01:54;;;;;;;5.87;3.80;;;;;;;2.85;51.81;95005.28;5047838;28;20225;-69
2023/01/26 09:04:20;;;;;;;4.47;3.80;;;;;;;2.72;52.70;94998.44;5048892;28;20209;-70
2023/01/26 09:06:45;;;;;;;3.27;2.97;;;;;;;2.72;52.21;95001.06;5044685;28;20282;-68
2023/01/26 09:09:13;;;;;;;3.80;3.07;;;;;;;2.64;52.24;95001.56;5050857;28;20259;-67
2023/01/26 09:11:39;;;;;;;3.43;3.13;;;;;;;2.56;52.82;95003.84;5046987;28;20248;-67
2023/01/26 09:14:04;;;;;;;3.20;2.90;;;;;;;2.64;52.37;94999.78;5053587;28;20312;-67
2023/01/26 09:16:30;;;;;;;4.93;4.20;;;;;;;2.69;52.60;94996.06;5047317;28;20371;-70
2023/01/26 09:18:55;;;;;;;4.40;4.00;;;;;;;2.86;52.05;94990.53;5053410;28;20215;-70
2023/01/26 09:21:22;;;;;;;5.60;3.77;;;;;;;2.88;51.86;94994.69;5046349;28;20275;-70
2023/01/26 09:23:48;;;;;;;5.43;4.20;;;;;;;2.79;52.45;94994.50;5050882;28;20228;-70
2023/01/26 09:26:14;;;;;;;4.67;3.40;;;;;;;2.55;53.79;94984.03;5040071;28;20233;-70
2023/01/26 09:28:39;;;;;;;5.60;3.97;;;;;;;2.58;53.56;94976.84;5064286;28;20536;-67
2023/01/26 09:31:07;;;;;;;3.63;3.33;;;;;;;2.73;52.70;94984.56;5050596;28;20190;-67
2023/01/26 09:33:32;;;;;;;3.77;3.40;;;;;;;2.83;52.46;94975.16;5048557;28;20232;-68
2023/01/26 09:36:03;;;;;;;3.53;3.23;;;;;;;2.79;52.49;94964.19;5052085;28;20221;-68
2023/01/26 09:38:29;;;;;;;4.10;3.70;;;;;;;2.77;53.06;94955.66;5036135;28;20232;-68
2023/01/26 09:41:10;;;;;;;5.33;3.70;;;;;;;2.84;53.23;94959.50;5053773;28;20267;-68
2023/01/26 09:43:49;;;;;;;5.90;4.17;;;;;;;2.73;52.84;94971.56;5044774;28;20228;-67
2023/01/26 09:46:24;;;;;;;4.27;3.93;;;;;;;2.82;52.87;94969.16;5048976;28;20645;-64
2023/01/26 09:49:12;;;;;;;4.07;3.40;;;;;;;2.61;54.03;94974.03;5042582;28;20284;-66
2023/01/26 09:51:41;;;;;;;9.03;4.13;;;;;;;2.78;54.02;94956.47;5053846;28;20217;-65
2023/01/26 09:54:09;;;;;;;4.13;3.73;;;;;;;2.85;53.91;94944.75;5042486;28;20218;-66
2023/01/26 09:56:35;;;;;;;3.67;2.83;;;;;;;3.11;52.86;94942.91;5050776;28;20275;-64
2023/01/26 09:59:13;;;;;;;3.50;3.13;;;;;;;3.08;52.61;94937.94;5048662;28;20221;-63
2023/01/26 10:01:46;;;;;;;4.67;3.03;;;;;;;2.98;52.87;94945.53;5054708;28;20185;-65
2023/01/26 10:04:35;;;;;;;3.60;3.27;;;;;;;3.17;52.81;94949.44;5054416;28;20196;-64
2023/01/26 10:07:06;;;;;;;4.60;3.70;;;;;;;3.14;53.01;94947.06;5049754;28;20256;-63
2023/01/26 10:09:35;;;;;;;5.40;3.90;;;;;;;3.26;52.00;94943.59;5047916;28;20228;-63
2023/01/26 10:12:05;;;;;;;6.00;3.47;;;;;;;3.19;52.87;94939.78;5051727;28;20232;-64
2023/01/26 10:14:42;;;;;;;5.07;3.30;;;;;;;3.16;52.72;94953.00;5047515;28;20214;-64
2023/01/26 10:17:37;;;;;;;5.43;3.37;;;;;;;3.15;52.88;94938.31;5044830;28;20248;-68
2023/01/26 10:20:14;;;;;;;3.20;2.90;;;;;;;3.21;52.34;94924.91;5045851;28;20309;-65
2023/01/26 10:22:47;;;;;;;5.00;2.83;;;;;;;3.07;53.04;94918.94;5050018;28;20532;-62
2023/01/26 10:25:16;;;;;;;3.07;2.77;;;;;;;3.14;52.99;94910.69;5044127;28;20256;-66
2023/01/26 10:27:44;;;;;;;3.60;2.83;;;;;;;3.30;52.73;94906.88;5057284;28;20197;-64
2023/01/26 10:30:19;;;;;;;3.43;2.93;;;;;;;3.20;52.44;94900.69;5054819;28;20213;-66
2023/01/26 10:32:46;;;;;;;3.70;3.17;;;;;;;3.35;52.77;94900.53;5039066;28;20212;-65
2023/01/26 10:35:17;;;;;;;12.83;9.13;;;;;;;3.15;53.69;94892.38;5050479;28;20212;-64
2023/01/26 10:37:42;;;;;;;3.43;2.90;;;;;;;3.31;52.81;94886.91;5046433;28;20255;-64
2023/01/26 10:40:09;;;;;;;4.03;3.17;;;;;;;3.25;52.40;94875.19;5047026;28;20229;-64
2023/01/26 10:42:36;;;;;;;3.27;2.97;;;;;;;3.39;52.43;94881.16;5047855;28;20261;-66
2023/01/26 10:45:30;;;;;;;4.43;3.43;;;;;;;3.33;51.97;94860.81;5049333;28;20201;-66
2023/01/26 10:48:17;;;;;;;5.93;3.30;;;;;;;3.49;52.53;94853.56;5040952;28;20221;-67
2023/01/26 10:50:42;;;;;;;3.70;3.13;;;;;;;3.52;51.57;94848.97;5046187;28;20216;-67
2023/01/26 10:53:21;;;;;;;3.70;3.33;;;;;;;3.41;52.05;94846.31;5052117;28;20228;-66
2023/01/26 10:56:12;;;;;;;4.40;3.03;;;;;;;3.59;51.44;94832.94;5048544;28;20232;-67
2023/01/26 10:58:41;;;;;;;5.90;3.40;;;;;;;3.67;51.85;94823.59;5051030;28;20229;-68
2023/01/26 11:01:11;;;;;;;6.53;3.27;;;;;;;3.66;51.37;94815.91;5049139;28;20277;-67
2023/01/26 11:03:38;;;;;;;3.50;3.20;;;;;;;3.63;51.63;94813.53;5050549;28;20228;-67
2023/01/26 11:06:06;;;;;;;2.90;2.60;;;;;;;3.80;51.42;94800.13;5055471;28;20303;-67
2023/01/26 11:08:38;;;;;;;3.63;2.97;;;;;;;3.78;50.97;94798.56;5048339;28;20258;-67
2023/01/26 11:11:09;;;;;;;3.70;2.97;;;;;;;3.88;51.05;94797.75;5051458;28;20217;-67
2023/01/26 11:13:35;;;;;;;4.27;3.20;;;;;;;3.88;50.86;94786.53;5045191;28;20221;-67
2023/01/26 11:16:04;;;;;;;4.13;3.23;;;;;;;3.78;50.72;94786.38;5046579;28;20244;-67
2023/01/26 11:19:12;;;;;;;3.63;3.20;;;;;;;3.84;51.31;94785.91;5048505;28;20204;-67
2023/01/26 11:21:47;;;;;;;3.80;3.40;;;;;;;3.84;51.04;94778.13;4933232;29;20212;-67
2023/01/26 11:24:38;;;;;;;3.03;2.73;;;;;;;3.95;51.06;94777.28;4931751;28;20302;-67
2023/01/26 11:27:12;;;;;;;3.10;2.80;;;;;;;3.92;50.88;94762.75;4947702;28;20220;-67
2023/01/26 11:29:59;;;;;;;4.17;3.07;;;;;;;3.68;51.00;94749.03;4952602;28;20224;-67
2023/01/26 11:32:33;;;;;;;3.70;3.20;;;;;;;3.65;51.14;94760.47;4953842;28;20314;-66
2023/01/26 11:35:01;;;;;;;4.83;2.87;;;;;;;3.74;51.54;94753.75;4956613;28;20227;-66
2023/01/26 11:37:36;;;;;;;4.03;3.37;;;;;;;3.76;51.43;94749.25;4948951;28;20268;-62
2023/01/26 11:40:27;;;;;;;4.10;3.70;;;;;;;3.94;51.51;94744.44;4947466;28;20236;-62
2023/01/26 11:43:24;;;;;;;3.77;3.27;;;;;;;3.87;51.00;94730.25;4932935;28;20235;-65
2023/01/26 11:46:20;;;;;;;4.63;3.17;;;;;;;3.84;52.00;94736.50;4954678;28;20240;-68
2023/01/26 11:48:48;;;;;;;4.20;3.37;;;;;;;3.86;51.91;94742.41;4952711;28;20233;-66
2023/01/26 11:51:47;;;;;;;5.03;3.73;;;;;;;3.97;51.46;94739.00;4953233;28;20333;-67
2023/01/26 11:54:57;;;;;;;8.30;3.53;;;;;;;3.88;51.70;94739.72;4955936;28;20268;-66
2023/01/26 11:58:00;;;;;;;4.53;3.30;;;;;;;3.78;51.95;94730.97;4931188;28;20294;-67
2023/01/26 12:00:51;;;;;;;3.50;3.20;;;;;;;3.89;52.11;94736.97;4991291;28;20187;-65
2023/01/26 12:03:44;;;;;;;3.27;2.97;;;;;;;3.88;51.79;94724.94;4928088;29;20209;-67
2023/01/26 12:06:16;;;;;;;4.07;2.73;;;;;;;3.73;51.77;94726.09;4934771;29;20232;-68
2023/01/26 12:08:58;;;;;;;3.70;2.60;;;;;;;3.51;52.50;94714.75;4930774;29;20275;-65
2023/01/26 12:11:32;;;;;;;2.80;2.60;;;;;;;3.65;52.34;94715.47;4922312;29;20232;-65
2023/01/26 12:14:27;;;;;;;4.93;3.07;;;;;;;3.48;52.88;94714.16;4919325;29;20239;-64
2023/01/26 12:16:57;;;;;;;4.03;3.63;;;;;;;3.24;53.19;94701.22;4916487;29;20253;-71
2023/01/26 12:20:03;;;;;;;4.00;3.03;;;;;;;3.36;53.66;94702.88;4935195;29;20224;-66
2023/01/26 12:22:33;;;;;;;3.70;3.40;;;;;;;3.35;53.21;94693.44;4915310;29;20272;-66
2023/01/26 12:25:26;;;;;;;3.83;3.53;;;;;;;3.29;53.73;94686.94;4915792;29;20243;-67
2023/01/26 12:28:02;;;;;;;3.83;3.53;;;;;;;3.18;54.06;94670.50;4918355;29;20316;-68
2023/01/26 12:30:42;;;;;;;3.80;3.50;;;;;;;3.19;54.45;94672.16;4937079;29;20224;-67
2023/01/26 12:33:09;;;;;;;3.80;3.50;;;;;;;3.13;54.32;94670.00;4926804;29;20196;-65
2023/01/26 12:35:55;;;;;;;3.87;3.37;;;;;;;2.96;55.46;94669.50;4938294;28;20296;-65
2023/01/26 12:38:39;;;;;;;4.37;3.80;;;;;;;3.20;55.21;94666.00;4951850;28;20236;-65
2023/01/26 12:41:43;;;;;;;5.97;5.37;;;;;;;3.27;54.82;94662.03;5024398;28;20320;-65